Soesterberg, Nederland

6:37 PM CET op 10 februari 2016 (GMT +0100)
Van der Griendtlaan | | Change Station
CLOSE
Current Station
Persoonlijk weerstation
Location: Soesterberg, UTRECHT
Geometrische hoogte: 56 ft
Nabije weerstations

Hoogte 56 ft 52.12 °N, 5.28 °E | Updated 1 second ago

Partly Cloudy
Gedeeltelijk bewolkt
41.3 °F
Voelt als 41 °F
N
2.0
Wind Variabel Wind van WNW
Gusts 7.0 mijl/u

Vandaag
Hoog -- | Laag -- °F
--% Kans op neerslag
Gisteren
Hoog -- | Laag -- °F
Precip. -- inches
Druk 29.42 inches
Zicht 6.2 mijlen
Wolken Gering 2000 ft
Gevoelstemperatuur 41 °F
Dauwpunt 37 °F
Vochtigheid 84%
Neerslag 0.23 inches
Dikte sneeuw Niet beschikbaar.
8:04 AM 5:42 PM
Wassende halvemaan, 6% visible
METAR EHAM 101725Z 29012KT 9999 FEW020CB 06/02 Q0996 NOSIG
Druk 29.42 inches
Zicht 6.2 mijlen
Wolken Gering 2000 ft
Gevoelstemperatuur 41 °F
Dauwpunt 37 °F
Vochtigheid 84%
Neerslag 0.23 inches
Dikte sneeuw Niet beschikbaar.
8:04 AM 5:42 PM
Wassende halvemaan, 6% visible
METAR EHAM 101725Z 29012KT 9999 FEW020CB 06/02 Q0996 NOSIG

10-Day Weather Forecast

Almanac

Astronomie

Feb. 10, 2016 Opkomst Ondergang
Werkelijke tijd
Burgerlijke schemering
Nautische schemering
Astronomische schemering
Maan
Golflengte van het zichtbare licht
Daglengte
Tomorrow will be .
, % of the Moon is Illuminated

Extremen vandaag

Country Highs Country Lows

Community

WunderPhotos

Upload Photos

1,891,898 foto’s ge-upload!

WunderBlog® & News

Nearby

Luchtkwaliteit

  Luchtkwaliteit LK-index Verontreinigende stof
Not available.

Dikte sneeuw

Station Depth Geometrische hoogte

Aardbevingen

Stad Distance Mag. Time & Date
Minimum magnitude displayed is 2.5.

Watertemperatuur langs de kust

Plaats Temperatuur

Stations

Nabije weerstations

Locatie station Temp. Gevoelstemperatuur Dauwpunt Vochtigheid Wind Precip. Hoogte Geactualiseerd Type